createdAt,value
2018-08-11T00:00:41.151Z,1007.64
2018-08-11T00:01:41.131Z,1007.65
2018-08-11T00:02:41.056Z,1007.61
2018-08-11T00:03:41.006Z,1007.64
2018-08-11T00:04:40.960Z,1007.64
2018-08-11T00:05:40.912Z,1007.57
2018-08-11T00:06:40.887Z,1007.59
2018-08-11T00:07:40.816Z,1007.62
2018-08-11T00:08:40.771Z,1007.62
2018-08-11T00:09:40.725Z,1007.59
2018-08-11T00:10:40.675Z,1007.58
2018-08-11T00:11:40.649Z,1007.59
2018-08-11T00:12:40.575Z,1007.63
2018-08-11T00:13:40.529Z,1007.61
2018-08-11T00:14:40.487Z,1007.60
2018-08-11T00:15:40.435Z,1007.59
2018-08-11T00:16:40.411Z,1007.50
2018-08-11T00:17:40.863Z,1007.53
2018-08-11T00:18:40.297Z,1007.51
2018-08-11T00:19:40.239Z,1007.49
2018-08-11T00:20:40.198Z,1007.51
2018-08-11T00:21:40.169Z,1007.47
2018-08-11T00:22:40.103Z,1007.49
2018-08-11T00:23:40.052Z,1007.42
2018-08-11T00:24:40.003Z,1007.49
2018-08-11T00:25:39.962Z,1007.41
2018-08-11T00:26:39.936Z,1007.43
2018-08-11T00:27:39.863Z,1007.42
2018-08-11T00:28:39.809Z,1007.39
2018-08-11T00:29:39.764Z,1007.42
2018-08-11T00:30:39.717Z,1007.42
2018-08-11T00:31:39.689Z,1007.44
2018-08-11T00:32:39.627Z,1007.45
2018-08-11T00:33:39.577Z,1007.41
2018-08-11T00:34:39.528Z,1007.40
2018-08-11T00:35:39.478Z,1007.38
2018-08-11T00:36:39.459Z,1007.39
2018-08-11T00:37:39.385Z,1007.38
2018-08-11T00:38:39.338Z,1007.36
2018-08-11T00:39:39.287Z,1007.35
2018-08-11T00:40:39.240Z,1007.32
2018-08-11T00:41:39.216Z,1007.37
2018-08-11T00:42:39.146Z,1007.37
2018-08-11T00:43:39.096Z,1007.39
2018-08-11T00:44:39.052Z,1007.34
2018-08-11T00:45:39.003Z,1007.35
2018-08-11T00:46:38.998Z,1007.33
2018-08-11T00:47:38.905Z,1007.35
2018-08-11T00:48:38.856Z,1007.33
2018-08-11T00:49:38.809Z,1007.34
2018-08-11T00:50:38.784Z,1007.32
2018-08-11T00:51:38.713Z,1007.30
2018-08-11T00:52:38.696Z,1007.29
2018-08-11T00:53:38.618Z,1007.31
2018-08-11T00:54:38.576Z,1007.33
2018-08-11T00:55:38.523Z,1007.35
2018-08-11T00:56:38.482Z,1007.32
2018-08-11T00:57:38.450Z,1007.32
2018-08-11T00:58:38.378Z,1007.32
2018-08-11T00:59:38.334Z,1007.27
2018-08-11T01:00:38.288Z,1007.26
2018-08-11T01:01:38.235Z,1007.26
2018-08-11T01:02:38.219Z,1007.28
2018-08-11T01:03:38.146Z,1007.26
2018-08-11T01:04:38.092Z,1007.26
2018-08-11T01:05:38.046Z,1007.26
2018-08-11T01:06:37.994Z,1007.25
2018-08-11T01:07:37.970Z,1007.24
2018-08-11T01:08:37.908Z,1007.23
2018-08-11T01:09:37.874Z,1007.25
2018-08-11T01:10:37.810Z,1007.25
2018-08-11T01:11:37.755Z,1007.22
2018-08-11T01:12:37.734Z,1007.21
2018-08-11T01:13:37.664Z,1007.20
2018-08-11T01:14:37.615Z,1007.20
2018-08-11T01:15:37.567Z,1007.22
2018-08-11T01:16:37.520Z,1007.21
2018-08-11T01:17:37.497Z,1007.22
2018-08-11T01:18:37.426Z,1007.19
2018-08-11T01:19:37.375Z,1007.22
2018-08-11T01:20:37.335Z,1007.23
2018-08-11T01:21:37.280Z,1007.24
2018-08-11T01:22:37.257Z,1007.21
2018-08-11T01:23:37.185Z,1007.21
2018-08-11T01:24:37.139Z,1007.23
2018-08-11T01:25:37.090Z,1007.25
2018-08-11T01:26:37.046Z,1007.26
2018-08-11T01:27:37.020Z,1007.23
2018-08-11T01:28:36.950Z,1007.24
2018-08-11T01:29:36.898Z,1007.27
2018-08-11T01:30:36.852Z,1007.25
2018-08-11T01:31:36.805Z,1007.22
2018-08-11T01:32:36.777Z,1007.26
2018-08-11T01:33:36.710Z,1007.23
2018-08-11T01:34:36.660Z,1007.28
2018-08-11T01:35:36.615Z,1007.26
2018-08-11T01:36:36.571Z,1007.28
2018-08-11T01:37:36.546Z,1007.25
2018-08-11T01:38:36.471Z,1007.29
2018-08-11T01:39:36.425Z,1007.30
2018-08-11T01:40:36.377Z,1007.25
2018-08-11T01:41:36.326Z,1007.24
2018-08-11T01:42:36.305Z,1007.23
2018-08-11T01:43:36.235Z,1007.25
2018-08-11T01:44:36.181Z,1007.24
2018-08-11T01:45:36.136Z,1007.23
2018-08-11T01:46:36.086Z,1007.21
2018-08-11T01:47:36.065Z,1007.19
2018-08-11T01:48:35.993Z,1007.20
2018-08-11T01:49:35.946Z,1007.21
2018-08-11T01:50:35.899Z,1007.24
2018-08-11T01:51:35.850Z,1007.26
2018-08-11T01:52:35.871Z,1007.29
2018-08-11T01:53:35.756Z,1007.29
2018-08-11T01:54:35.704Z,1007.30
2018-08-11T01:55:35.661Z,1007.25
2018-08-11T01:56:35.612Z,1007.30
2018-08-11T01:57:35.590Z,1007.35
2018-08-11T01:58:35.516Z,1007.39
2018-08-11T01:59:35.468Z,1007.40
2018-08-11T02:00:35.420Z,1007.40
2018-08-11T02:01:35.377Z,1007.35
2018-08-11T02:02:35.350Z,1007.41
2018-08-11T02:03:35.286Z,1007.43
2018-08-11T02:04:35.231Z,1007.41
2018-08-11T02:05:35.186Z,1007.39
2018-08-11T02:06:35.133Z,1007.39
2018-08-11T02:07:35.114Z,1007.46
2018-08-11T02:08:35.037Z,1007.42
2018-08-11T02:09:34.989Z,1007.44
2018-08-11T02:10:34.941Z,1007.45
2018-08-11T02:11:34.900Z,1007.42
2018-08-11T02:12:34.869Z,1007.41
2018-08-11T02:13:34.795Z,1007.39
2018-08-11T02:14:34.754Z,1007.43
2018-08-11T02:15:34.704Z,1007.42
2018-08-11T02:16:34.656Z,1007.44
2018-08-11T02:17:34.648Z,1007.49
2018-08-11T02:18:34.566Z,1007.49
2018-08-11T02:19:34.520Z,1007.52
2018-08-11T02:20:34.469Z,1007.57
2018-08-11T02:21:34.419Z,1007.57
2018-08-11T02:22:34.376Z,1007.60
2018-08-11T02:23:34.360Z,1007.60
2018-08-11T02:24:34.315Z,1007.67
2018-08-11T02:25:34.225Z,1007.67
2018-08-11T02:26:34.181Z,1007.69
2018-08-11T02:27:34.136Z,1007.77
2018-08-11T02:28:34.109Z,1007.78
2018-08-11T02:29:34.037Z,1007.76
2018-08-11T02:30:33.994Z,1007.79
2018-08-11T02:31:33.940Z,1007.86
2018-08-11T02:32:33.892Z,1007.84
2018-08-11T02:33:33.870Z,1007.96
2018-08-11T02:34:33.799Z,1007.98
2018-08-11T02:35:33.753Z,1008.03
2018-08-11T02:36:33.706Z,1008.05
2018-08-11T02:37:33.655Z,1008.10
2018-08-11T02:38:33.637Z,1008.11
2018-08-11T02:39:33.558Z,1008.24
2018-08-11T02:40:33.513Z,1008.24
2018-08-11T02:41:33.465Z,1008.24
2018-08-11T02:42:33.416Z,1008.19
2018-08-11T02:43:33.391Z,1008.11
2018-08-11T02:44:33.322Z,1007.96
2018-08-11T02:45:33.268Z,1007.90
2018-08-11T02:46:33.254Z,1007.79
2018-08-11T02:47:33.179Z,1007.80
2018-08-11T02:48:33.152Z,1007.78
2018-08-11T02:49:33.079Z,1007.81
2018-08-11T02:50:33.032Z,1007.86
2018-08-11T02:51:32.982Z,1007.88
2018-08-11T02:52:32.937Z,1007.94
2018-08-11T02:53:32.911Z,1007.92
2018-08-11T02:54:32.837Z,1007.92
2018-08-11T02:55:32.790Z,1007.89
2018-08-11T02:56:32.744Z,1007.87
2018-08-11T02:57:32.691Z,1007.91
2018-08-11T02:58:32.668Z,1007.96
2018-08-11T02:59:32.602Z,1007.93
2018-08-11T03:00:32.547Z,1007.90
2018-08-11T03:01:32.500Z,1007.96
2018-08-11T03:02:32.520Z,1007.97
2018-08-11T03:03:32.429Z,1007.98
2018-08-11T03:04:32.354Z,1007.96
2018-08-11T03:05:32.306Z,1007.97
2018-08-11T03:06:32.255Z,1007.96
2018-08-11T03:07:32.206Z,1008.00
2018-08-11T03:08:32.180Z,1008.00
2018-08-11T03:09:32.117Z,1008.08
2018-08-11T03:10:32.061Z,1008.17
2018-08-11T03:11:32.016Z,1008.20
2018-08-11T03:12:31.970Z,1008.21
2018-08-11T03:13:31.939Z,1008.26
2018-08-11T03:14:31.864Z,1008.25
2018-08-11T03:15:31.824Z,1008.17
2018-08-11T03:16:31.770Z,1008.11
2018-08-11T03:17:31.721Z,1008.02
2018-08-11T03:18:31.699Z,1008.00
2018-08-11T03:19:31.626Z,1008.08
2018-08-11T03:20:31.578Z,1008.15
2018-08-11T03:21:31.526Z,1008.25
2018-08-11T03:22:31.480Z,1008.28
2018-08-11T03:23:31.460Z,1008.31
2018-08-11T03:24:31.382Z,1008.24
2018-08-11T03:25:31.336Z,1008.18
2018-08-11T03:26:31.286Z,1008.14
2018-08-11T03:27:31.235Z,1008.01
2018-08-11T03:28:31.213Z,1007.92
2018-08-11T03:29:31.141Z,1007.72
2018-08-11T03:30:31.091Z,1007.67
2018-08-11T03:31:31.048Z,1007.57
2018-08-11T03:32:30.994Z,1007.65
2018-08-11T03:33:30.973Z,1007.85
2018-08-11T03:34:30.898Z,1008.00
2018-08-11T03:35:30.851Z,1008.13
2018-08-11T03:36:30.800Z,1008.18
2018-08-11T03:37:30.750Z,1008.16
2018-08-11T03:38:30.722Z,1008.13
2018-08-11T03:39:30.650Z,1008.13
2018-08-11T03:40:30.602Z,1008.12
2018-08-11T03:41:30.559Z,1008.09
2018-08-11T03:42:30.543Z,1008.14
2018-08-11T03:43:30.480Z,1008.15
2018-08-11T03:44:30.404Z,1008.11
2018-08-11T03:45:30.356Z,1008.12
2018-08-11T03:46:30.316Z,1008.09
2018-08-11T03:47:30.267Z,1008.07
2018-08-11T03:48:30.256Z,1008.08
2018-08-11T03:49:30.165Z,1008.08
2018-08-11T03:50:30.115Z,1008.09
2018-08-11T03:51:30.064Z,1008.11
2018-08-11T03:52:30.045Z,1008.15
2018-08-11T03:53:29.968Z,1008.19
2018-08-11T03:54:29.944Z,1008.21
2018-08-11T03:55:29.866Z,1008.25
2018-08-11T03:56:29.820Z,1008.31
2018-08-11T03:57:29.774Z,1008.31
2018-08-11T03:58:29.729Z,1008.43
2018-08-11T03:59:29.703Z,1008.44
2018-08-11T04:00:29.633Z,1008.46
2018-08-11T04:01:29.578Z,1008.46
2018-08-11T04:02:29.528Z,1008.43
2018-08-11T04:03:29.477Z,1008.40
2018-08-11T04:04:29.454Z,1008.36
2018-08-11T04:05:29.379Z,1008.36
2018-08-11T04:06:29.357Z,1008.40
2018-08-11T04:07:29.289Z,1008.41
2018-08-11T04:08:29.237Z,1008.42
2018-08-11T04:09:29.206Z,1008.43
2018-08-11T04:10:29.134Z,1008.46
2018-08-11T04:11:29.088Z,1008.51
2018-08-11T04:12:29.037Z,1008.56
2018-08-11T04:13:28.996Z,1008.55
2018-08-11T04:14:28.964Z,1008.53
2018-08-11T04:15:28.892Z,1008.56
2018-08-11T04:16:28.842Z,1008.52
2018-08-11T04:17:28.792Z,1008.54
2018-08-11T04:18:28.748Z,1008.54
2018-08-11T04:19:28.718Z,1008.56
2018-08-11T04:20:28.648Z,1008.56
2018-08-11T04:21:28.597Z,1008.57
2018-08-11T04:22:28.546Z,1008.60
2018-08-11T04:23:28.498Z,1008.61
2018-08-11T04:24:28.473Z,1008.62
2018-08-11T04:25:28.401Z,1008.65
2018-08-11T04:26:28.361Z,1008.69
2018-08-11T04:27:28.304Z,1008.67
2018-08-11T04:28:28.256Z,1008.67
2018-08-11T04:29:28.230Z,1008.66
2018-08-11T04:30:28.161Z,1008.70
2018-08-11T04:31:28.106Z,1008.71
2018-08-11T04:32:28.057Z,1008.70
2018-08-11T04:33:28.011Z,1008.70
2018-08-11T04:34:27.984Z,1008.72
2018-08-11T04:35:27.907Z,1008.70
2018-08-11T04:36:27.861Z,1008.76
2018-08-11T04:37:27.816Z,1008.74
2018-08-11T04:38:27.766Z,1008.77
2018-08-11T04:39:27.738Z,1008.75
2018-08-11T04:40:27.664Z,1008.74
2018-08-11T04:41:27.614Z,1008.77
2018-08-11T04:42:27.565Z,1008.76
2018-08-11T04:43:27.520Z,1008.78
2018-08-11T04:44:27.491Z,1008.81
2018-08-11T04:45:27.417Z,1008.85
2018-08-11T04:46:27.368Z,1008.87
2018-08-11T04:47:27.318Z,1008.82
2018-08-11T04:48:27.273Z,1008.85
2018-08-11T04:49:27.245Z,1008.88
2018-08-11T04:50:27.178Z,1008.88
2018-08-11T04:51:27.125Z,1008.86
2018-08-11T04:52:27.079Z,1008.86
2018-08-11T04:53:27.028Z,1008.88
2018-08-11T04:54:27.004Z,1008.88
2018-08-11T04:55:26.929Z,1008.89
2018-08-11T04:56:26.880Z,1008.89
2018-08-11T04:57:26.836Z,1008.85
2018-08-11T04:58:26.783Z,1008.91
2018-08-11T04:59:26.757Z,1008.86
2018-08-11T05:00:26.684Z,1008.89
2018-08-11T05:01:26.635Z,1008.95
2018-08-11T05:02:26.584Z,1008.93
2018-08-11T05:03:26.536Z,1008.91
2018-08-11T05:04:26.514Z,1008.92
2018-08-11T05:05:26.439Z,1008.92
2018-08-11T05:06:26.391Z,1008.93
2018-08-11T05:07:26.345Z,1008.98
2018-08-11T05:08:26.295Z,1009.00
2018-08-11T05:09:26.268Z,1008.97
2018-08-11T05:10:26.193Z,1009.00
2018-08-11T05:11:26.146Z,1008.98
2018-08-11T05:12:26.098Z,1008.99
2018-08-11T05:13:26.048Z,1008.96
2018-08-11T05:14:26.130Z,1008.95
2018-08-11T05:15:25.952Z,1008.94
2018-08-11T05:16:25.931Z,1008.95
2018-08-11T05:17:25.860Z,1008.97
2018-08-11T05:18:25.800Z,1008.97
2018-08-11T05:19:25.800Z,1008.97
2018-08-11T05:20:25.704Z,1008.99
2018-08-11T05:21:25.656Z,1009.01
2018-08-11T05:22:25.610Z,1009.03
2018-08-11T05:23:25.557Z,1009.05
2018-08-11T05:24:25.562Z,1009.07
2018-08-11T05:25:25.483Z,1009.05
2018-08-11T05:26:25.451Z,1009.05
2018-08-11T05:27:25.367Z,1009.04
2018-08-11T05:28:25.315Z,1009.07
2018-08-11T05:29:25.265Z,1009.12
2018-08-11T05:30:25.239Z,1009.11
2018-08-11T05:31:25.167Z,1009.08
2018-08-11T05:32:25.115Z,1009.09
2018-08-11T05:33:25.068Z,1009.05
2018-08-11T05:34:25.021Z,1008.99
2018-08-11T05:35:24.997Z,1009.02
2018-08-11T05:36:24.925Z,1009.05
2018-08-11T05:37:24.872Z,1009.04
2018-08-11T05:38:24.823Z,1009.07
2018-08-11T05:39:24.775Z,1009.10
2018-08-11T05:40:24.757Z,1009.13
2018-08-11T05:41:24.678Z,1009.18
2018-08-11T05:42:24.627Z,1009.16
2018-08-11T05:43:24.583Z,1009.18
2018-08-11T05:44:24.537Z,1009.24
2018-08-11T05:45:24.505Z,1009.21
2018-08-11T05:46:24.439Z,1009.25
2018-08-11T05:47:24.384Z,1009.26
2018-08-11T05:48:24.335Z,1009.25
2018-08-11T05:49:24.296Z,1009.23
2018-08-11T05:50:24.262Z,1009.28
2018-08-11T05:51:24.190Z,1009.27
2018-08-11T05:52:24.141Z,1009.25
2018-08-11T05:53:24.100Z,1009.26
2018-08-11T05:54:24.051Z,1009.23
2018-08-11T05:55:24.021Z,1009.26
2018-08-11T05:56:23.951Z,1009.28
2018-08-11T05:57:23.901Z,1009.28
2018-08-11T05:58:23.855Z,1009.29
2018-08-11T05:59:23.801Z,1009.22
2018-08-11T06:00:23.782Z,1009.16
2018-08-11T06:01:23.705Z,1009.23
2018-08-11T06:02:23.660Z,1009.21
2018-08-11T06:03:23.614Z,1009.22
2018-08-11T06:04:23.561Z,1009.23
2018-08-11T06:05:23.541Z,1009.25
2018-08-11T06:06:23.467Z,1009.26
2018-08-11T06:07:23.414Z,1009.25
2018-08-11T06:08:23.366Z,1009.21
2018-08-11T06:09:23.318Z,1009.22
2018-08-11T06:10:23.325Z,1009.24
2018-08-11T06:11:23.220Z,1009.29
2018-08-11T06:12:23.170Z,1009.22
2018-08-11T06:13:23.125Z,1009.22
2018-08-11T06:14:23.072Z,1009.31
2018-08-11T06:15:23.053Z,1009.34
2018-08-11T06:16:22.974Z,1009.32
2018-08-11T06:17:22.932Z,1009.35
2018-08-11T06:18:22.880Z,1009.34
2018-08-11T06:19:22.834Z,1009.43
2018-08-11T06:20:22.816Z,1009.43
2018-08-11T06:21:22.738Z,1009.38
2018-08-11T06:22:22.687Z,1009.41
2018-08-11T06:23:22.638Z,1009.41
2018-08-11T06:24:22.589Z,1009.41
2018-08-11T06:25:22.562Z,1009.39
2018-08-11T06:26:22.495Z,1009.43
2018-08-11T06:27:22.444Z,1009.46
2018-08-11T06:28:22.397Z,1009.43
2018-08-11T06:29:22.348Z,1009.44
2018-08-11T06:30:22.321Z,1009.45
2018-08-11T06:31:22.318Z,1009.39
2018-08-11T06:32:22.206Z,1009.40
2018-08-11T06:33:22.156Z,1009.37
2018-08-11T06:34:22.105Z,1009.37
2018-08-11T06:35:22.081Z,1009.39
2018-08-11T06:36:22.011Z,1009.39
2018-08-11T06:37:21.963Z,1009.40
2018-08-11T06:38:21.921Z,1009.45
2018-08-11T06:39:21.868Z,1009.45
2018-08-11T06:40:21.859Z,1009.46
2018-08-11T06:41:21.764Z,1009.44
2018-08-11T06:42:21.722Z,1009.44
2018-08-11T06:43:21.675Z,1009.47
2018-08-11T06:44:21.624Z,1009.49
2018-08-11T06:45:21.576Z,1009.49
2018-08-11T06:46:21.549Z,1009.52
2018-08-11T06:47:21.480Z,1009.51
2018-08-11T06:48:21.430Z,1009.56
2018-08-11T06:49:21.379Z,1009.52
2018-08-11T06:50:21.339Z,1009.55
2018-08-11T06:51:21.311Z,1009.62
2018-08-11T06:52:21.236Z,1009.61
2018-08-11T06:53:21.187Z,1009.60
2018-08-11T06:54:21.139Z,1009.64
2018-08-11T06:55:21.092Z,1009.64
2018-08-11T06:56:21.076Z,1009.61
2018-08-11T06:57:20.994Z,1009.66
2018-08-11T06:58:21.016Z,1009.66
2018-08-11T06:59:20.901Z,1009.63
2018-08-11T07:00:20.849Z,1009.61
2018-08-11T07:01:20.826Z,1009.67
2018-08-11T07:02:20.755Z,1009.65
2018-08-11T07:03:20.705Z,1009.70
2018-08-11T07:04:20.657Z,1009.64
2018-08-11T07:05:20.612Z,1009.67
2018-08-11T07:06:20.585Z,1009.70
2018-08-11T07:07:20.516Z,1009.65
2018-08-11T07:08:20.472Z,1009.68
2018-08-11T07:09:20.422Z,1009.68
2018-08-11T07:10:20.367Z,1009.74
2018-08-11T07:11:20.360Z,1009.72
2018-08-11T07:12:20.276Z,1009.81
2018-08-11T07:13:20.223Z,1009.81
2018-08-11T07:14:20.180Z,1009.77
2018-08-11T07:15:20.234Z,1009.86
2018-08-11T07:16:20.102Z,1009.81
2018-08-11T07:17:20.031Z,1009.87
2018-08-11T07:18:19.984Z,1009.83
2018-08-11T07:19:19.939Z,1009.87
2018-08-11T07:20:19.886Z,1009.79
2018-08-11T07:21:19.889Z,1009.83
2018-08-11T07:22:19.790Z,1009.83
2018-08-11T07:23:19.744Z,1009.84
2018-08-11T07:24:19.702Z,1009.88
2018-08-11T07:25:19.647Z,1009.91
2018-08-11T07:26:19.651Z,1009.95
2018-08-11T07:27:19.551Z,1009.93
2018-08-11T07:28:19.501Z,1010.02
2018-08-11T07:29:19.456Z,1009.95
2018-08-11T07:30:19.472Z,1009.93
2018-08-11T07:31:19.381Z,1009.96
2018-08-11T07:32:19.310Z,1009.99
2018-08-11T07:33:19.265Z,1010.01
2018-08-11T07:34:19.215Z,1010.06
2018-08-11T07:35:19.187Z,1010.03
2018-08-11T07:36:19.231Z,1010.06
2018-08-11T07:37:19.078Z,1010.01
2018-08-11T07:38:19.023Z,1010.02
2018-08-11T07:39:18.978Z,1010.07
2018-08-11T07:40:18.928Z,1010.05
2018-08-11T07:41:18.908Z,1010.05
2018-08-11T07:42:18.833Z,1010.06
2018-08-11T07:43:18.836Z,1010.06
2018-08-11T07:44:18.739Z,1010.04
2018-08-11T07:45:18.687Z,1010.06
2018-08-11T07:46:18.670Z,1010.09
2018-08-11T07:47:18.596Z,1010.06
2018-08-11T07:48:18.553Z,1010.05
2018-08-11T07:49:18.501Z,1010.04
2018-08-11T07:50:18.466Z,1010.03
2018-08-11T07:51:18.424Z,1010.02
2018-08-11T07:52:18.357Z,1010.04
2018-08-11T07:53:18.310Z,1009.96
2018-08-11T07:54:18.260Z,1010.00
2018-08-11T07:55:18.214Z,1009.95
2018-08-11T07:56:18.186Z,1009.99
2018-08-11T07:57:18.147Z,1009.99
2018-08-11T07:58:18.071Z,1009.91
2018-08-11T07:59:18.031Z,1009.96
2018-08-11T08:00:17.976Z,1009.98
2018-08-11T08:01:17.948Z,1010.03
2018-08-11T08:02:17.906Z,1009.99
2018-08-11T08:03:17.839Z,1010.11
2018-08-11T08:04:17.790Z,1010.15
2018-08-11T08:05:17.738Z,1010.10
2018-08-11T08:06:17.693Z,1010.10
2018-08-11T08:07:17.670Z,1010.10
2018-08-11T08:08:17.596Z,1010.15
2018-08-11T08:09:17.548Z,1010.15
2018-08-11T08:10:17.512Z,1010.11
2018-08-11T08:11:17.460Z,1010.20
2018-08-11T08:12:17.434Z,1010.15
2018-08-11T08:13:17.360Z,1010.18
2018-08-11T08:14:17.329Z,1010.19
2018-08-11T08:15:17.270Z,1010.18
2018-08-11T08:16:17.223Z,1010.17
2018-08-11T08:17:17.198Z,1010.18
2018-08-11T08:18:17.123Z,1010.19
2018-08-11T08:19:17.080Z,1010.29
2018-08-11T08:20:17.030Z,1010.22
2018-08-11T08:21:16.986Z,1010.24
2018-08-11T08:22:16.960Z,1010.25
2018-08-11T08:23:16.897Z,1010.18
2018-08-11T08:24:16.846Z,1010.22
2018-08-11T08:25:16.792Z,1010.27
2018-08-11T08:26:16.895Z,1010.32
2018-08-11T08:27:16.728Z,1010.25
2018-08-11T08:28:16.656Z,1010.24
2018-08-11T08:29:16.621Z,1010.24
2018-08-11T08:30:16.560Z,1010.30
2018-08-11T08:31:16.516Z,1010.32
2018-08-11T08:32:16.495Z,1010.34
2018-08-11T08:33:16.422Z,1010.31
2018-08-11T08:34:16.370Z,1010.29
2018-08-11T08:35:16.328Z,1010.30
2018-08-11T08:36:16.279Z,1010.29
2018-08-11T08:37:16.259Z,1010.27
2018-08-11T08:38:16.256Z,1010.24
2018-08-11T08:39:16.215Z,1010.27
2018-08-11T08:40:16.092Z,1010.24
2018-08-11T08:41:16.210Z,1010.20
2018-08-11T08:42:16.029Z,1010.23
2018-08-11T08:43:15.955Z,1010.29
2018-08-11T08:44:15.905Z,1010.29
2018-08-11T08:45:15.859Z,1010.37
2018-08-11T08:46:15.814Z,1010.40
2018-08-11T08:47:15.790Z,1010.34
2018-08-11T08:48:15.718Z,1010.22
2018-08-11T08:49:15.670Z,1010.27
2018-08-11T08:50:15.622Z,1010.30
2018-08-11T08:51:15.619Z,1010.32
2018-08-11T08:52:15.551Z,1010.27
2018-08-11T08:53:15.504Z,1010.28
2018-08-11T08:54:15.431Z,1010.35
2018-08-11T08:55:15.392Z,1010.36
2018-08-11T08:56:15.346Z,1010.36
2018-08-11T08:57:15.318Z,1010.34
2018-08-11T08:58:15.245Z,1010.23
2018-08-11T08:59:15.195Z,1010.26
2018-08-11T09:00:15.156Z,1010.32
2018-08-11T09:01:15.102Z,1010.26
2018-08-11T09:02:15.082Z,1010.35
2018-08-11T09:03:15.014Z,1010.34
2018-08-11T09:04:14.968Z,1010.25
2018-08-11T09:05:14.918Z,1010.37
2018-08-11T09:06:14.870Z,1010.33
2018-08-11T09:07:14.850Z,1010.26
2018-08-11T09:08:14.775Z,1010.30
2018-08-11T09:09:14.728Z,1010.28
2018-08-11T09:10:14.687Z,1010.25
2018-08-11T09:11:14.633Z,1010.25
2018-08-11T09:12:14.612Z,1010.31
2018-08-11T09:13:14.550Z,1010.23
2018-08-11T09:14:14.495Z,1010.28
2018-08-11T09:15:14.446Z,1010.36
2018-08-11T09:16:14.401Z,1010.24
2018-08-11T09:17:14.376Z,1010.23
2018-08-11T09:18:14.306Z,1010.34
2018-08-11T09:19:14.262Z,1010.29
2018-08-11T09:20:14.215Z,1010.32
2018-08-11T09:21:14.166Z,1010.33
2018-08-11T09:22:14.164Z,1010.30
2018-08-11T09:23:14.069Z,1010.25
2018-08-11T09:24:14.023Z,1010.31
2018-08-11T09:25:13.982Z,1010.29
2018-08-11T09:26:13.931Z,1010.30
2018-08-11T09:27:13.881Z,1010.29
2018-08-11T09:28:13.860Z,1010.24
2018-08-11T09:29:13.890Z,1010.25
2018-08-11T09:30:13.747Z,1010.28
2018-08-11T09:31:13.699Z,1010.29
2018-08-11T09:32:13.652Z,1010.28
2018-08-11T09:33:13.629Z,1010.25
2018-08-11T09:34:13.558Z,1010.25
2018-08-11T09:35:13.512Z,1010.21
2018-08-11T09:36:13.463Z,1010.20
2018-08-11T09:37:13.417Z,1010.32
2018-08-11T09:38:13.393Z,1010.23
2018-08-11T09:39:13.444Z,1010.22
2018-08-11T09:40:13.286Z,1010.20
2018-08-11T09:41:13.294Z,1010.26
2018-08-11T09:42:13.184Z,1010.21
2018-08-11T09:43:13.164Z,1010.27
2018-08-11T09:44:13.107Z,1010.29
2018-08-11T09:45:13.046Z,1010.27
2018-08-11T09:46:13.016Z,1010.21
2018-08-11T09:47:12.955Z,1010.24
2018-08-11T09:48:12.927Z,1010.24
2018-08-11T09:49:12.856Z,1010.25
2018-08-11T09:50:12.812Z,1010.18
2018-08-11T09:51:12.771Z,1010.24
2018-08-11T09:52:12.727Z,1010.19
2018-08-11T09:53:12.691Z,1010.24
2018-08-11T09:54:12.623Z,1010.15
2018-08-11T09:55:12.576Z,1010.18
2018-08-11T09:56:12.531Z,1010.17
2018-08-11T09:57:12.484Z,1010.11
2018-08-11T09:58:12.470Z,1010.15
2018-08-11T09:59:12.391Z,1010.14
2018-08-11T10:00:12.345Z,1010.15
2018-08-11T10:01:12.297Z,1010.14
2018-08-11T10:02:12.252Z,1010.19
2018-08-11T10:03:12.232Z,1010.13
2018-08-11T10:04:12.161Z,1010.18
2018-08-11T10:05:12.188Z,1010.25
2018-08-11T10:06:12.063Z,1010.29
2018-08-11T10:07:12.018Z,1010.23
2018-08-11T10:08:11.995Z,1010.25
2018-08-11T10:09:11.923Z,1010.22
2018-08-11T10:10:11.878Z,1010.19
2018-08-11T10:11:11.834Z,1010.25
2018-08-11T10:12:11.783Z,1010.25
2018-08-11T10:13:11.760Z,1010.21
2018-08-11T10:14:11.687Z,1010.15
2018-08-11T10:15:11.647Z,1010.23
2018-08-11T10:16:11.602Z,1010.13
2018-08-11T10:17:11.552Z,1010.15
2018-08-11T10:18:11.533Z,1010.15
2018-08-11T10:19:11.458Z,1010.15
2018-08-11T10:20:11.413Z,1010.23
2018-08-11T10:21:11.367Z,1010.15
2018-08-11T10:22:11.319Z,1010.18
2018-08-11T10:23:11.293Z,1010.09
2018-08-11T10:24:11.229Z,1010.15
2018-08-11T10:25:11.177Z,1010.09
2018-08-11T10:26:11.135Z,1010.15
2018-08-11T10:27:11.087Z,1010.22
2018-08-11T10:28:11.061Z,1010.19
2018-08-11T10:29:10.992Z,1010.17
2018-08-11T10:30:10.944Z,1010.16
2018-08-11T10:31:10.897Z,1010.13
2018-08-11T10:32:10.855Z,1010.09
2018-08-11T10:33:10.903Z,1010.17
2018-08-11T10:34:10.759Z,1010.15
2018-08-11T10:35:10.717Z,1010.23
2018-08-11T10:36:10.673Z,1010.24
2018-08-11T10:37:10.621Z,1010.20
2018-08-11T10:38:10.596Z,1010.17
2018-08-11T10:39:10.526Z,1010.20
2018-08-11T10:40:10.540Z,1010.22
2018-08-11T10:41:10.429Z,1010.18
2018-08-11T10:42:10.389Z,1010.23
2018-08-11T10:43:10.373Z,1010.22
2018-08-11T10:44:10.302Z,1010.16
2018-08-11T10:45:10.246Z,1010.22
2018-08-11T10:46:10.202Z,1010.22
2018-08-11T10:47:10.171Z,1010.24
2018-08-11T10:48:10.135Z,1010.29
2018-08-11T10:49:10.061Z,1010.22
2018-08-11T10:50:10.020Z,1010.16
2018-08-11T10:51:09.970Z,1010.20
2018-08-11T10:52:09.922Z,1010.17
2018-08-11T10:53:09.934Z,1010.14
2018-08-11T10:54:09.833Z,1010.21
2018-08-11T10:55:09.807Z,1010.17
2018-08-11T10:56:09.741Z,1010.14
2018-08-11T10:57:09.692Z,1010.11
2018-08-11T10:58:09.648Z,1010.12
2018-08-11T10:59:09.625Z,1010.14
2018-08-11T11:00:09.552Z,1010.09
2018-08-11T11:01:09.524Z,1010.16
2018-08-11T11:02:09.461Z,1010.09
2018-08-11T11:03:09.415Z,1010.25
2018-08-11T11:04:09.392Z,1010.11
2018-08-11T11:05:09.328Z,1010.15
2018-08-11T11:06:09.283Z,1010.11
2018-08-11T11:07:09.234Z,1010.15
2018-08-11T11:08:09.195Z,1010.14
2018-08-11T11:09:09.169Z,1010.12
2018-08-11T11:10:09.098Z,1010.09
2018-08-11T11:11:09.052Z,1010.11
2018-08-11T11:12:09.010Z,1010.17
2018-08-11T11:13:08.970Z,1010.08
2018-08-11T11:14:08.955Z,1010.15
2018-08-11T11:15:08.876Z,1010.08
2018-08-11T11:16:08.823Z,1010.10
2018-08-11T11:17:08.778Z,1010.11
2018-08-11T11:18:08.733Z,1010.04
2018-08-11T11:19:08.706Z,1010.12
2018-08-11T11:20:08.638Z,1010.13
2018-08-11T11:21:08.591Z,1010.10
2018-08-11T11:22:08.548Z,1010.09
2018-08-11T11:23:08.503Z,1010.16
2018-08-11T11:24:08.479Z,1010.07
2018-08-11T11:25:08.410Z,1010.13
2018-08-11T11:26:08.375Z,1010.08
2018-08-11T11:27:08.372Z,1010.08
2018-08-11T11:28:08.277Z,1010.13
2018-08-11T11:29:08.252Z,1010.07
2018-08-11T11:30:08.179Z,1010.07
2018-08-11T11:31:08.132Z,1010.04
2018-08-11T11:32:08.088Z,1010.11
2018-08-11T11:33:08.038Z,1010.07
2018-08-11T11:34:08.022Z,1010.15
2018-08-11T11:35:07.948Z,1010.11
2018-08-11T11:36:07.902Z,1010.01
2018-08-11T11:37:07.911Z,1010.06
2018-08-11T11:38:07.814Z,1009.98
2018-08-11T11:39:07.789Z,1010.02
2018-08-11T11:40:07.723Z,1009.99
2018-08-11T11:41:07.672Z,1009.99
2018-08-11T11:42:07.632Z,1010.03
2018-08-11T11:43:07.582Z,1010.02
2018-08-11T11:44:07.561Z,1010.03
2018-08-11T11:45:07.491Z,1009.97
2018-08-11T11:46:07.443Z,1010.07
2018-08-11T11:47:07.398Z,1010.06
2018-08-11T11:48:07.351Z,1010.06
2018-08-11T11:49:07.333Z,1010.04
2018-08-11T11:50:07.263Z,1010.09
2018-08-11T11:51:07.222Z,1010.13
2018-08-11T11:52:07.171Z,1010.07
2018-08-11T11:53:07.120Z,1010.07
2018-08-11T11:54:07.097Z,1010.07
2018-08-11T11:55:07.032Z,1010.03
2018-08-11T11:56:06.982Z,1010.07
2018-08-11T11:57:06.940Z,1010.13
2018-08-11T11:58:06.892Z,1010.06
2018-08-11T11:59:06.872Z,1010.03
2018-08-11T12:00:06.800Z,1010.00
2018-08-11T12:01:06.755Z,1010.05
2018-08-11T12:02:06.756Z,1010.13
2018-08-11T12:03:06.665Z,1010.15
2018-08-11T12:04:06.646Z,1010.17
2018-08-11T12:05:06.570Z,1010.03